Littleton, New Hampshire
Current Conditions -  °F | °C
As of 9:52 AM on Monday 24 Nov 2014 (Local Time) from KHIE Reporting Station
Light Rain Light Rain  
Wind Chill: 56°   Ceiling: 6000
Heat Index: 56°   Visibility: 10mi
Dew Point: 49°   Wind: 13mph
Humidity: 77%   Direction: 160°SSE
Pressure: 29.61"   Gusts: 33mph
Location:  44.31°N, 71.77°W
Report Text: KHIE 241452Z AUTO 16011G29KT 10SM -RA BKN060 OVC070 13/09 A2961 RMK AO2 PK WND 14033/1420 SLP031 P0000 60022 T01330094 56063
Loading
Personal Weather Stations






























Interactive Weather Map New forecast layout! Learn more

10-Day Weather Forecast

Advertisements
Track Severe Weather on mobile